KHIO/HIO METAR and TAF weather

Enter ICAO airport designator
Station Type Date Time Source
KHIO METAR 2019/10/23 19:53 UTC NOAA

KHIO 231953Z 00000KT 10SM SCT016 12/08 A3046 RMK AO2 SLP315 T01220078


Station Type Date Time Source
KHIO Decoded METAR 2019/10/23 19:53 UTC NOAA

PORTLAND-HILLSBORO AIRPORT, OR, United States (KHIO) 45-33N 122-57W 68M
Oct 23, 2019 - 03:53 PM EDT / 2019.10.23 1953 UTC
Wind: Calm:0
Visibility: 10 mile(s):0
Sky conditions: partly cloudy
Temperature: 54.0 F (12.2 C)
Dew Point: 46.0 F (7.8 C)
Relative Humidity: 74%
Pressure (altimeter): 30.46 in. Hg (1031 hPa)
ob: KHIO 231953Z 00000KT 10SM SCT016 12/08 A3046 RMK AO2 SLP315 T01220078
cycle: 20

Station Type Date Time Source
KHIO TAF 2019/10/23 18:42 UTC NOAA

TAF KHIO 231740Z 2318/2418 00000KT P6SM SCT007 BKN015
FM232000 VRB03KT P6SM SCT050
FM240800 00000KT 6SM BR SCT025
FM241100 VRB02KT 4SM BR BKN025

Example: see airport list